Skip Navigation LinksHome page > Weather > Current weather Skip Navigation Links

Current Weather

Ronald Reagan Washington National, Washington

For information only: do not use for flight planning or navigation.
Latest weather
Observation time Monday, August 29, 2016 4:52 PM EDT
Local time Monday, August 29, 2016 5:45 PM EDT
Flight conditions Visual Meteorological Conditions
Winds
Wind direction North-Northeast (30°)
Wind speed 7 mph
Visibility 10 mi.
Sky condition
Ceiling 25,000 ft. broken clouds
Cloud layer few clouds 6,000 ft.
Cloud layer broken clouds 25,000 ft.
Temperature 93°F
Dewpoint 69°F
Altimeter 30.07 in.Hg
Pressure change last 3 hours0.06 in.Hg
Pressure falling more quickly
Derived measurements
Relative humidity 46%
Heat index 98°F
Density altitude 2324 ft.
Sea-level pressure 30.07 in.Hg
Remarks
Automated weather observing station with precipitation discriminator.
METAR KDCA 292052Z 03006KT 10SM FEW060 BKN250 34/21 A3007 RMK AO2 SLP184 T03390206 58022

Settings

Location code

InnerDrive.Weather 4.0.5722.1 Release CLR 4.0.30319.34209
Copyright ©2015 Inner Drive Technology. All rights reserved. Portions Copyright ©1986-2015 David Braverman.

Find weather

Site navigation


Skip Navigation Links

Place info

Page info

PayPal - The safer, easier way to pay online!

Return home.

Copyright ©2016 Inner Drive Technology. Purveyors of fine, hand-crafted computer software. Page printed 2016-08-29T21:45:52 UTC.